Time;durP1;ratioP1;P1;durP2;ratioP2;P2;SDS_P1;SDS_P2;PMS_P1;PMS_P2;Temp;Humidity;BMP_temperature;BMP_pressure;BME280_temperature;BME280_humidity;BME280_pressure;Samples;Min_cycle;Max_cycle;Signal;HPM_P1;HPM_P2
2021/10/20 00:00:34;;;;;;;;;;;;;;;16.93;76.51;100622.47;5038073;28;1065;-61
2021/10/20 00:02:59;;;;;;;;;;;;;;;16.92;76.63;100615.41;5038015;28;1908;-61
2021/10/20 00:05:24;;;;;;;;;;;;;;;16.92;76.72;100615.41;5037634;28;1009;-61
2021/10/20 00:07:49;;;;;;;;;;;;;;;16.92;76.56;100615.41;5038215;28;1570;-59
2021/10/20 00:10:14;;;;;;;;;;;;;;;16.91;76.61;100619.09;5037924;28;898;-60
2021/10/20 00:12:39;;;;;;;;;;;;;;;16.92;76.76;100604.63;5037601;28;1017;-60
2021/10/20 00:15:05;;;;;;;;;;;;;;;16.90;76.42;100603.94;5037646;28;1898;-60
2021/10/20 00:17:30;;;;;;;;;;;;;;;16.91;76.63;100600.25;5037791;28;823;-61
2021/10/20 00:19:59;;;;;;;;;;;;;;;16.90;76.77;100595.00;5037432;28;1030;-60
2021/10/20 00:22:24;;;;;;;;;;;;;;;16.90;76.66;100590.47;5037565;28;1867;-60
2021/10/20 00:24:49;;;;;;;;;;;;;;;16.90;76.68;100585.09;5037554;28;1280;-61
2021/10/20 00:27:14;;;;;;;;;;;;;;;16.89;76.62;100580.69;5037448;28;1455;-60
2021/10/20 00:29:39;;;;;;;;;;;;;;;16.89;76.32;100583.38;5037459;28;808;-60
2021/10/20 00:32:04;;;;;;;;;;;;;;;16.90;77.13;100578.84;5037521;28;2058;-60
2021/10/20 00:34:29;;;;;;;;;;;;;;;16.89;76.98;100571.78;5037150;28;1890;-61
2021/10/20 00:36:54;;;;;;;;;;;;;;;16.89;76.70;100561.00;5036589;28;2046;-60
2021/10/20 00:39:19;;;;;;;;;;;;;;;16.88;77.00;100564.69;5037137;28;1096;-62
2021/10/20 00:41:45;;;;;;;;;;;;;;;16.89;76.61;100571.78;5036822;28;1813;-60
2021/10/20 00:44:10;;;;;;;;;;;;;;;16.86;76.79;100559.44;5037279;28;819;-60
2021/10/20 00:46:35;;;;;;;;;;;;;;;16.87;76.23;100560.31;5037531;28;1643;-60
2021/10/20 00:49:00;;;;;;;;;;;;;;;16.86;76.53;100556.75;5036929;28;1192;-60
2021/10/20 00:51:25;;;;;;;;;;;;;;;16.87;76.29;100554.91;5036976;28;1845;-63
2021/10/20 00:53:50;;;;;;;;;;;;;;;16.86;77.08;100567.53;5037001;28;1914;-62
2021/10/20 00:56:16;;;;;;;;;;;;;;;16.85;76.66;100544.28;5037064;28;978;-62
2021/10/20 00:58:41;;;;;;;;;;;;;;;16.84;76.39;100547.97;5036794;28;1005;-63
2021/10/20 01:01:06;;;;;;;;;;;;;;;16.84;77.06;100542.59;5036615;28;1789;-62
2021/10/20 01:03:31;;;;;;;;;;;;;;;16.83;76.79;100538.25;5037153;28;846;-62
2021/10/20 01:05:56;;;;;;;;;;;;;;;16.83;76.69;100532.84;5036737;28;1049;-61
2021/10/20 01:08:21;;;;;;;;;;;;;;;16.83;76.47;100530.16;5036571;28;930;-61
2021/10/20 01:10:46;;;;;;;;;;;;;;;16.84;76.68;100521.06;5036796;28;1705;-62
2021/10/20 01:13:11;;;;;;;;;;;;;;;16.83;76.56;100519.41;5035624;28;1953;-62
2021/10/20 01:15:36;;;;;;;;;;;;;;;16.83;76.76;100519.41;5019209;28;1021;-62
2021/10/20 01:18:02;;;;;;;;;;;;;;;16.82;76.75;100512.31;5036449;28;1883;-62
2021/10/20 01:20:27;;;;;;;;;;;;;;;16.82;75.89;100516.84;5036346;28;1333;-61
2021/10/20 01:22:52;;;;;;;;;;;;;;;16.82;76.64;100508.78;5036413;28;2026;-62
2021/10/20 01:25:18;;;;;;;;;;;;;;;16.81;76.64;100510.63;5036156;28;1255;-62
2021/10/20 01:27:43;;;;;;;;;;;;;;;16.81;77.08;100507.94;5036334;28;1085;-61
2021/10/20 01:30:08;;;;;;;;;;;;;;;16.79;76.89;100504.53;5036674;28;1565;-61
2021/10/20 01:32:33;;;;;;;;;;;;;;;16.80;76.45;100491.94;5018454;28;748;-61
2021/10/20 01:34:58;;;;;;;;;;;;;;;16.80;76.56;100491.94;5036016;28;1973;-61
2021/10/20 01:37:23;;;;;;;;;;;;;;;16.80;76.73;100495.47;5035910;28;1451;-61
2021/10/20 01:39:48;;;;;;;;;;;;;;;16.80;76.61;100489.25;5036318;28;1446;-61
2021/10/20 01:42:13;;;;;;;;;;;;;;;16.79;76.58;100501.84;5035621;28;1953;-61
2021/10/20 01:44:38;;;;;;;;;;;;;;;16.78;77.01;100494.78;5036129;28;1025;-61
2021/10/20 01:47:03;;;;;;;;;;;;;;;16.77;76.64;100495.75;5036244;28;1091;-61
2021/10/20 01:49:28;;;;;;;;;;;;;;;16.76;76.84;100477.91;5035132;28;1549;-60
2021/10/20 01:51:53;;;;;;;;;;;;;;;16.76;76.47;100472.53;5035629;28;2034;-61
2021/10/20 01:54:18;;;;;;;;;;;;;;;16.76;76.84;100475.22;5035871;28;1975;-60
2021/10/20 01:56:45;;;;;;;;;;;;;;;16.74;76.73;100474.53;5035732;28;1068;-60
2021/10/20 01:59:10;;;;;;;;;;;;;;;16.75;76.50;100473.53;5018043;28;886;-60
2021/10/20 02:01:36;;;;;;;;;;;;;;;16.74;76.83;100466.44;5035446;28;1836;-60
2021/10/20 02:04:01;;;;;;;;;;;;;;;16.75;76.67;100464.59;5035908;28;1746;-60
2021/10/20 02:06:26;;;;;;;;;;;;;;;16.74;76.69;100462.91;5035589;28;1377;-60
2021/10/20 02:08:51;;;;;;;;;;;;;;;16.75;76.77;100461.91;5035938;28;954;-60
2021/10/20 02:11:16;;;;;;;;;;;;;;;16.74;76.45;100477.22;5035436;28;827;-61
2021/10/20 02:13:41;;;;;;;;;;;;;;;16.73;76.37;100454.00;5035259;28;1890;-60
2021/10/20 02:16:06;;;;;;;;;;;;;;;16.72;76.42;100457.69;5035409;28;1013;-61
2021/10/20 02:18:31;;;;;;;;;;;;;;;16.72;76.53;100443.38;5035743;28;801;-60
2021/10/20 02:20:56;;;;;;;;;;;;;;;16.72;76.52;100425.38;5035317;28;1369;-61
2021/10/20 02:23:21;;;;;;;;;;;;;;;16.73;76.76;100420.84;5035403;28;965;-61
2021/10/20 02:25:46;;;;;;;;;;;;;;;16.72;76.74;100425.38;5035130;28;1389;-62
2021/10/20 02:28:11;;;;;;;;;;;;;;;16.72;76.37;100416.47;5034742;28;1906;-61
2021/10/20 02:30:37;;;;;;;;;;;;;;;16.71;76.42;100412.94;5035489;28;839;-62
2021/10/20 02:33:02;;;;;;;;;;;;;;;16.72;76.69;100411.09;5035101;28;1021;-61
2021/10/20 02:35:27;;;;;;;;;;;;;;;16.71;76.75;100407.53;5035157;28;1965;-61
2021/10/20 02:37:52;;;;;;;;;;;;;;;16.71;76.63;100404.84;5035101;28;1487;-62
2021/10/20 02:40:17;;;;;;;;;;;;;;;16.69;76.90;100408.69;5035048;28;812;-59
2021/10/20 02:42:42;;;;;;;;;;;;;;;16.69;76.69;100398.78;5034856;28;1549;-60
2021/10/20 02:45:07;;;;;;;;;;;;;;;16.69;76.78;100396.09;5034784;28;811;-59
2021/10/20 02:47:32;;;;;;;;;;;;;;;16.69;76.59;100403.31;5034948;28;998;-60
2021/10/20 02:49:57;;;;;;;;;;;;;;;16.67;76.65;100388.16;5034828;28;1038;-59
2021/10/20 02:52:22;;;;;;;;;;;;;;;16.67;76.39;100380.09;5034668;28;994;-59
2021/10/20 02:54:47;;;;;;;;;;;;;;;16.67;76.81;100385.47;5034791;28;1910;-60
2021/10/20 02:57:12;;;;;;;;;;;;;;;16.67;76.37;100373.84;5034812;28;1946;-60
2021/10/20 02:59:37;;;;;;;;;;;;;;;16.65;76.93;100371.34;5034953;28;832;-60
2021/10/20 03:02:03;;;;;;;;;;;;;;;16.66;76.52;100369.47;5034770;28;2014;-61
2021/10/20 03:04:28;;;;;;;;;;;;;;;16.67;76.55;100368.47;5035058;28;954;-61
2021/10/20 03:06:53;;;;;;;;;;;;;;;16.65;76.59;100357.91;5034750;28;1076;-61
2021/10/20 03:09:18;;;;;;;;;;;;;;;16.65;76.53;100355.22;5034751;28;997;-61
2021/10/20 03:11:43;;;;;;;;;;;;;;;16.66;76.75;100350.63;5034592;28;918;-61
2021/10/20 03:14:09;;;;;;;;;;;;;;;16.65;76.90;100351.66;5034667;28;1958;-61
2021/10/20 03:16:34;;;;;;;;;;;;;;;16.64;76.70;100358.88;5034912;28;1820;-61
2021/10/20 03:18:59;;;;;;;;;;;;;;;16.64;76.91;100347.28;5034521;28;807;-61
2021/10/20 03:21:24;;;;;;;;;;;;;;;16.63;76.76;100348.28;5034365;28;1388;-61
2021/10/20 03:23:49;;;;;;;;;;;;;;;16.63;76.63;100345.59;5034545;28;926;-61
2021/10/20 03:26:14;;;;;;;;;;;;;;;16.63;76.72;100334.81;5034414;28;2126;-61
2021/10/20 03:28:40;;;;;;;;;;;;;;;16.62;76.63;100335.78;5034253;28;1076;-61
2021/10/20 03:31:05;;;;;;;;;;;;;;;16.62;76.50;100341.16;5034692;28;1700;-61
2021/10/20 03:33:30;;;;;;;;;;;;;;;16.62;76.91;100341.16;5033377;28;2150;-61
2021/10/20 03:35:55;;;;;;;;;;;;;;;16.63;76.79;100340.22;5034294;28;1824;-61
2021/10/20 03:38:20;;;;;;;;;;;;;;;16.62;76.58;100343.88;5034445;28;905;-61
2021/10/20 03:40:45;;;;;;;;;;;;;;;16.62;76.57;100341.16;5034526;28;1678;-61
2021/10/20 03:43:10;;;;;;;;;;;;;;;16.60;76.44;100335.94;5034264;28;1052;-62
2021/10/20 03:45:35;;;;;;;;;;;;;;;16.60;76.55;100340.47;5034798;28;1732;-62
2021/10/20 03:48:00;;;;;;;;;;;;;;;16.61;76.52;100342.16;5034567;28;855;-62
2021/10/20 03:50:25;;;;;;;;;;;;;;;16.60;76.43;100335.94;5034342;28;990;-61
2021/10/20 03:52:50;;;;;;;;;;;;;;;16.60;76.30;100344.00;5034378;28;1822;-60
2021/10/20 03:55:15;;;;;;;;;;;;;;;16.59;76.72;100333.41;5034135;28;1903;-61
2021/10/20 03:57:40;;;;;;;;;;;;;;;16.60;76.64;100329.72;5034015;28;1653;-62
2021/10/20 04:00:06;;;;;;;;;;;;;;;16.59;76.44;100319.94;5034869;28;1503;-61
2021/10/20 04:02:31;;;;;;;;;;;;;;;16.58;76.81;100326.31;5034556;28;832;-61
2021/10/20 04:04:56;;;;;;;;;;;;;;;16.57;76.47;100313.88;5034198;28;997;-61
2021/10/20 04:07:21;;;;;;;;;;;;;;;16.57;76.63;100314.72;5034259;28;1193;-61
2021/10/20 04:09:47;;;;;;;;;;;;;;;16.55;76.63;100307.78;5034602;28;1757;-63
2021/10/20 04:12:12;;;;;;;;;;;;;;;16.55;76.70;100303.25;5035782;28;827;-62
2021/10/20 04:14:37;;;;;;;;;;;;;;;16.56;76.45;100298.72;5037873;28;1886;-62
2021/10/20 04:17:02;;;;;;;;;;;;;;;16.56;76.81;100291.50;5037669;28;1813;-63
2021/10/20 04:19:27;;;;;;;;;;;;;;;16.55;76.75;100280.88;5037613;28;1883;-62
2021/10/20 04:21:52;;;;;;;;;;;;;;;16.54;76.54;100277.34;5037615;28;843;-62
2021/10/20 04:24:17;;;;;;;;;;;;;;;16.55;76.63;100272.81;5037713;28;807;-62
2021/10/20 04:26:45;;;;;;;;;;;;;;;16.55;76.44;100276.34;5037404;28;1345;-62
2021/10/20 04:29:10;;;;;;;;;;;;;;;16.54;76.47;100268.44;5037629;28;1895;-62
2021/10/20 04:31:35;;;;;;;;;;;;;;;16.54;76.54;100260.38;5037591;28;1506;-64
2021/10/20 04:34:00;;;;;;;;;;;;;;;16.54;76.58;100265.75;5037375;28;1953;-64
2021/10/20 04:36:25;;;;;;;;;;;;;;;16.54;76.72;100265.75;5036864;28;1820;-64
2021/10/20 04:38:50;;;;;;;;;;;;;;;16.54;76.37;100269.28;5037307;28;803;-63
2021/10/20 04:41:15;;;;;;;;;;;;;;;16.54;76.42;100271.13;5037260;28;1619;-61
2021/10/20 04:43:40;;;;;;;;;;;;;;;16.54;76.56;100252.28;5037245;28;1006;-62
2021/10/20 04:46:05;;;;;;;;;;;;;;;16.52;76.60;100247.06;5037412;28;1656;-62
2021/10/20 04:48:31;;;;;;;;;;;;;;;16.52;76.89;100240.84;5037117;28;909;-62
2021/10/20 04:50:56;;;;;;;;;;;;;;;16.52;76.71;100235.47;5036602;28;1531;-62
2021/10/20 04:53:21;;;;;;;;;;;;;;;16.51;76.25;100242.69;5036717;28;1890;-62
2021/10/20 04:55:46;;;;;;;;;;;;;;;16.52;76.52;100238.16;5036516;28;1560;-62
2021/10/20 04:58:11;;;;;;;;;;;;;;;16.52;76.52;100230.06;5033915;28;2056;-64
2021/10/20 05:00:36;;;;;;;;;;;;;;;16.50;76.64;100229.38;5036250;28;1706;-61
2021/10/20 05:03:01;;;;;;;;;;;;;;;16.51;76.79;100239.16;5036878;28;866;-61
2021/10/20 05:05:28;;;;;;;;;;;;;;;16.53;76.51;100235.31;5036628;28;962;-62
2021/10/20 05:07:53;;;;;;;;;;;;;;;16.56;76.47;100242.22;5037346;28;795;-60
2021/10/20 05:10:18;;;;;;;;;;;;;;;16.60;77.01;100249.00;5037066;28;1009;-60
2021/10/20 05:12:43;;;;;;;;;;;;;;;16.61;76.97;100240.78;5036867;28;1645;-61
2021/10/20 05:15:08;;;;;;;;;;;;;;;16.63;77.27;100243.34;5036912;28;1890;-61
2021/10/20 05:17:33;;;;;;;;;;;;;;;16.62;77.19;100231.72;5036280;28;1650;-60
2021/10/20 05:19:58;;;;;;;;;;;;;;;16.62;77.27;100241.63;5035543;28;1620;-61
2021/10/20 05:22:23;;;;;;;;;;;;;;;16.61;77.42;100232.72;5035515;28;1991;-60
2021/10/20 05:24:48;;;;;;;;;;;;;;;16.61;77.66;100231.88;5034774;28;1658;-60
2021/10/20 05:27:14;;;;;;;;;;;;;;;16.60;77.84;100222.09;5036160;28;1669;-60
2021/10/20 05:29:39;;;;;;;;;;;;;;;16.60;77.53;100206.81;5036061;28;1624;-61
2021/10/20 05:32:04;;;;;;;;;;;;;;;16.61;77.52;100208.50;5036283;28;1651;-60
2021/10/20 05:34:29;;;;;;;;;;;;;;;16.61;77.64;100207.66;5035667;28;1973;-61
2021/10/20 05:36:54;;;;;;;;;;;;;;;16.60;77.48;100205.97;5035833;28;1496;-60
2021/10/20 05:39:19;;;;;;;;;;;;;;;16.61;77.75;100191.50;5036201;28;1050;-60
2021/10/20 05:41:44;;;;;;;;;;;;;;;16.60;77.83;100200.59;5035865;28;1526;-60
2021/10/20 05:44:11;;;;;;;;;;;;;;;16.61;77.49;100196.91;5036503;28;965;-60
2021/10/20 05:46:36;;;;;;;;;;;;;;;16.61;77.22;100186.13;5035350;28;1657;-60
2021/10/20 05:49:01;;;;;;;;;;;;;;;16.62;77.28;100187.81;5035997;28;1862;-60
2021/10/20 05:51:26;;;;;;;;;;;;;;;16.61;77.31;100191.50;5018481;28;1546;-60
2021/10/20 05:53:51;;;;;;;;;;;;;;;16.59;77.16;100188.97;5019042;28;1910;-60
2021/10/20 05:56:16;;;;;;;;;;;;;;;16.59;77.05;100188.13;5016146;28;866;-60
2021/10/20 05:58:42;;;;;;;;;;;;;;;16.58;77.10;100178.38;5015860;28;1058;-61
2021/10/20 06:01:07;;;;;;;;;;;;;;;16.57;77.10;100161.38;5015985;28;1005;-60
2021/10/20 06:03:32;;;;;;;;;;;;;;;16.58;76.98;100154.16;5016223;28;1006;-60
2021/10/20 06:05:57;;;;;;;;;;;;;;;16.58;76.90;100162.22;5016260;28;1068;-60
2021/10/20 06:08:22;;;;;;;;;;;;;;;16.57;76.92;100164.06;5015654;28;831;-60
2021/10/20 06:10:47;;;;;;;;;;;;;;;16.57;76.89;100147.94;5015646;28;837;-60
2021/10/20 06:13:12;;;;;;;;;;;;;;;16.57;76.74;100153.31;5016096;28;998;-60
2021/10/20 06:15:41;;;;;;;;;;;;;;;16.56;76.81;100151.63;5025743;28;1894;-60
2021/10/20 06:18:06;;;;;;;;;;;;;;;16.57;76.84;100136.31;5035941;28;860;-60
2021/10/20 06:20:31;;;;;;;;;;;;;;;16.56;76.72;100150.78;5035060;28;970;-60
2021/10/20 06:22:56;;;;;;;;;;;;;;;16.55;76.37;100138.31;5035426;28;791;-60
2021/10/20 06:25:21;;;;;;;;;;;;;;;16.53;76.93;100138.47;5035180;28;1378;-60
2021/10/20 06:27:46;;;;;;;;;;;;;;;16.55;76.70;100127.56;5035244;28;1014;-60
2021/10/20 06:30:11;;;;;;;;;;;;;;;16.54;76.98;100104.34;5035663;28;931;-60
2021/10/20 06:32:37;;;;;;;;;;;;;;;16.53;76.45;100097.28;5035243;28;867;-60
2021/10/20 06:35:02;;;;;;;;;;;;;;;16.52;76.59;100101.81;5034325;28;1898;-60
2021/10/20 06:37:29;;;;;;;;;;;;;;;16.53;76.54;100103.50;5035491;28;1885;-60
2021/10/20 06:39:54;;;;;;;;;;;;;;;16.53;76.59;100102.66;5035586;28;854;-60
2021/10/20 06:42:19;;;;;;;;;;;;;;;16.54;76.30;100096.28;5017595;28;863;-60
2021/10/20 06:44:44;;;;;;;;;;;;;;;16.52;76.63;100112.56;5035448;28;1068;-60
2021/10/20 06:47:09;;;;;;;;;;;;;;;16.53;76.23;100133.09;5035246;28;966;-60
2021/10/20 06:49:35;;;;;;;;;;;;;;;16.53;76.50;100134.94;5035066;28;1249;-60
2021/10/20 06:52:00;;;;;;;;;;;;;;;16.54;76.34;100152.78;5035156;28;800;-60
2021/10/20 06:54:25;;;;;;;;;;;;;;;16.54;76.47;100160.84;5034818;28;1926;-60
2021/10/20 06:56:50;;;;;;;;;;;;;;;16.52;76.08;100158.31;5034815;28;941;-60
2021/10/20 06:59:15;;;;;;;;;;;;;;;16.52;76.49;100154.75;5034980;28;859;-60
2021/10/20 07:01:40;;;;;;;;;;;;;;;16.51;76.68;100145.00;5035019;28;973;-61
2021/10/20 07:04:05;;;;;;;;;;;;;;;16.51;76.17;100147.69;5034767;28;835;-60
2021/10/20 07:06:30;;;;;;;;;;;;;;;16.51;76.61;100139.63;5035429;28;1123;-60
2021/10/20 07:08:55;;;;;;;;;;;;;;;16.52;75.94;100127.88;5034670;28;1883;-60
2021/10/20 07:11:21;;;;;;;;;;;;;;;16.50;76.22;100119.94;5034423;28;826;-60
2021/10/20 07:13:46;;;;;;;;;;;;;;;16.49;76.32;100096.75;5034477;28;1953;-60
2021/10/20 07:16:11;;;;;;;;;;;;;;;16.49;76.50;100083.28;5034485;28;902;-60
2021/10/20 07:18:36;;;;;;;;;;;;;;;16.50;76.25;100086.84;5034571;28;1064;-60
2021/10/20 07:21:02;;;;;;;;;;;;;;;16.49;76.32;100079.75;5035082;28;1005;-60
2021/10/20 07:23:27;;;;;;;;;;;;;;;16.50;75.90;100051.88;5034540;28;921;-60
2021/10/20 07:25:52;;;;;;;;;;;;;;;16.48;75.87;100038.56;5034556;28;1342;-60
2021/10/20 07:28:17;;;;;;;;;;;;;;;16.48;76.21;100032.38;5034539;28;1000;-60
2021/10/20 07:30:42;;;;;;;;;;;;;;;16.48;76.39;100025.13;5034695;28;799;-59
2021/10/20 07:33:07;;;;;;;;;;;;;;;16.49;76.21;100015.22;5034891;28;1751;-59
2021/10/20 07:35:32;;;;;;;;;;;;;;;16.47;75.94;99996.56;5034205;28;1898;-60
2021/10/20 07:37:57;;;;;;;;;;;;;;;16.47;76.36;99968.84;5034615;28;1639;-60
2021/10/20 07:40:22;;;;;;;;;;;;;;;16.46;76.03;99967.16;5034234;28;1206;-59
2021/10/20 07:42:47;;;;;;;;;;;;;;;16.47;76.12;99966.16;5034954;28;1650;-59
2021/10/20 07:45:14;;;;;;;;;;;;;;;16.47;76.12;99975.06;5033691;28;1600;-59
2021/10/20 07:47:39;;;;;;;;;;;;;;;16.47;76.02;99984.97;5037254;28;795;-59
2021/10/20 07:50:05;;;;;;;;;;;;;;;16.48;76.11;99981.28;5038357;28;1069;-59
2021/10/20 07:52:30;;;;;;;;;;;;;;;16.47;75.97;99974.22;5038216;28;1704;-59
2021/10/20 07:54:55;;;;;;;;;;;;;;;16.46;76.15;99962.63;5038089;28;1914;-59
2021/10/20 07:57:20;;;;;;;;;;;;;;;16.46;75.98;99964.47;5037828;28;2004;-59
2021/10/20 07:59:45;;;;;;;;;;;;;;;16.46;75.93;99968.00;5038114;28;800;-59
2021/10/20 08:02:10;;;;;;;;;;;;;;;16.47;75.93;99976.91;5038715;28;1668;-59
2021/10/20 08:04:35;;;;;;;;;;;;;;;16.45;75.99;99976.22;5037978;28;932;-59
2021/10/20 08:07:00;;;;;;;;;;;;;;;16.45;75.75;99977.06;5037886;28;1021;-59
2021/10/20 08:09:25;;;;;;;;;;;;;;;16.44;76.32;99970.00;5037844;28;1021;-59
2021/10/20 08:11:50;;;;;;;;;;;;;;;16.45;75.77;99952.00;5037957;28;1422;-59
2021/10/20 08:14:15;;;;;;;;;;;;;;;16.45;76.13;99952.00;5037723;28;1953;-59
2021/10/20 08:16:40;;;;;;;;;;;;;;;16.43;76.10;99927.13;5037653;28;866;-59
2021/10/20 08:19:06;;;;;;;;;;;;;;;16.44;75.85;99918.06;5037827;28;1029;-59
2021/10/20 08:21:31;;;;;;;;;;;;;;;16.44;75.96;99939.56;5038268;28;1850;-59
2021/10/20 08:23:56;;;;;;;;;;;;;;;16.45;75.86;99935.88;5037932;28;871;-59
2021/10/20 08:26:21;;;;;;;;;;;;;;;16.45;75.92;99960.94;5037520;28;1200;-59
2021/10/20 08:28:46;;;;;;;;;;;;;;;16.46;75.76;99967.16;5037570;28;849;-59
2021/10/20 08:31:11;;;;;;;;;;;;;;;16.46;75.90;99980.59;5037354;28;1985;-59
2021/10/20 08:33:36;;;;;;;;;;;;;;;16.46;75.76;99985.97;5037521;28;1902;-59
2021/10/20 08:36:01;;;;;;;;;;;;;;;16.45;75.63;99992.34;5037571;28;1343;-60
2021/10/20 08:38:26;;;;;;;;;;;;;;;16.45;75.49;99982.44;5037507;28;1005;-59
2021/10/20 08:40:51;;;;;;;;;;;;;;;16.44;75.92;99985.28;5037588;28;930;-60
2021/10/20 08:43:17;;;;;;;;;;;;;;;16.44;75.81;99979.91;5037128;28;1867;-60
2021/10/20 08:45:42;;;;;;;;;;;;;;;16.46;75.71;99991.34;5037245;28;1515;-59
2021/10/20 08:48:07;;;;;;;;;;;;;;;16.44;75.81;99991.50;5037360;28;863;-60
2021/10/20 08:50:32;;;;;;;;;;;;;;;16.44;75.66;99988.81;5037070;28;964;-60
2021/10/20 08:52:57;;;;;;;;;;;;;;;16.44;75.72;99979.91;5037036;28;894;-59
2021/10/20 08:55:22;;;;;;;;;;;;;;;16.45;75.55;99981.59;5036771;28;1942;-60
2021/10/20 08:57:47;;;;;;;;;;;;;;;16.44;75.87;99971.84;5036772;28;1096;-60
2021/10/20 09:00:12;;;;;;;;;;;;;;;16.44;75.61;99975.38;5036696;28;1069;-59
2021/10/20 09:02:38;;;;;;;;;;;;;;;16.44;75.57;99975.38;5036585;28;1931;-60
2021/10/20 09:05:04;;;;;;;;;;;;;;;16.43;75.58;99968.31;5017163;28;1064;-59
2021/10/20 09:07:29;;;;;;;;;;;;;;;16.43;75.60;99968.31;5016958;28;914;-60
2021/10/20 09:09:54;;;;;;;;;;;;;;;16.44;75.66;99974.53;5016961;28;906;-59
2021/10/20 09:12:19;;;;;;;;;;;;;;;16.44;75.70;99963.78;5016527;28;834;-60
2021/10/20 09:14:44;;;;;;;;;;;;;;;16.42;75.47;99963.94;5017236;28;1894;-60
2021/10/20 09:17:09;;;;;;;;;;;;;;;16.44;75.44;99947.63;5016609;28;1009;-60
2021/10/20 09:19:35;;;;;;;;;;;;;;;16.43;75.57;99952.16;5016904;28;949;-59
2021/10/20 09:22:02;;;;;;;;;;;;;;;16.45;75.55;99952.00;5029526;28;1856;-60
2021/10/20 09:24:27;;;;;;;;;;;;;;;16.44;75.68;99950.31;5036700;28;855;-60
2021/10/20 09:26:52;;;;;;;;;;;;;;;16.44;75.37;99942.25;5036782;28;1266;-59
2021/10/20 09:29:17;;;;;;;;;;;;;;;16.45;75.59;99954.69;5036813;28;866;-59
2021/10/20 09:31:42;;;;;;;;;;;;;;;16.44;75.41;99951.16;5036699;28;870;-59
2021/10/20 09:34:07;;;;;;;;;;;;;;;16.44;75.64;99945.78;5036171;28;1967;-60
2021/10/20 09:36:32;;;;;;;;;;;;;;;16.44;75.50;99936.88;5036209;28;1573;-59
2021/10/20 09:38:57;;;;;;;;;;;;;;;16.43;75.43;99924.44;5036279;28;918;-59
2021/10/20 09:41:22;;;;;;;;;;;;;;;16.44;75.74;99920.75;5035965;28;1797;-59
2021/10/20 09:43:54;;;;;;;;;;;;;;;16.43;75.84;99919.91;5036235;28;1733;-59
2021/10/20 09:46:19;;;;;;;;;;;;;;;16.44;75.31;99918.06;5036218;28;1834;-59
2021/10/20 09:48:44;;;;;;;;;;;;;;;16.44;75.53;99908.13;5035982;28;1068;-59
2021/10/20 09:51:09;;;;;;;;;;;;;;;16.45;75.70;99927.81;5036139;28;1097;-59
2021/10/20 09:53:34;;;;;;;;;;;;;;;16.45;75.49;99917.06;5036174;28;1906;-59
2021/10/20 09:55:59;;;;;;;;;;;;;;;16.45;75.31;99906.28;5036327;28;942;-59
2021/10/20 09:58:25;;;;;;;;;;;;;;;16.45;75.50;99922.44;5035828;28;1738;-60
2021/10/20 10:00:50;;;;;;;;;;;;;;;16.45;75.46;99922.44;5035246;28;1808;-60
2021/10/20 10:03:15;;;;;;;;;;;;;;;16.45;75.20;99906.28;5035636;28;843;-59
2021/10/20 10:05:40;;;;;;;;;;;;;;;16.44;75.32;99905.44;5035971;28;962;-59
2021/10/20 10:08:05;;;;;;;;;;;;;;;16.44;75.32;99899.22;5035575;28;812;-60
2021/10/20 10:10:31;;;;;;;;;;;;;;;16.45;75.53;99908.97;5035183;28;1921;-60
2021/10/20 10:12:56;;;;;;;;;;;;;;;16.44;75.57;99907.28;5035429;28;875;-60
2021/10/20 10:15:21;;;;;;;;;;;;;;;16.45;75.38;99911.66;5035132;28;1882;-60
2021/10/20 10:17:46;;;;;;;;;;;;;;;16.44;76.10;99920.75;5035684;28;1494;-59
2021/10/20 10:20:12;;;;;;;;;;;;;;;16.45;75.22;99903.59;5035719;28;1865;-59
2021/10/20 10:22:37;;;;;;;;;;;;;;;16.44;75.58;99910.81;5035386;28;844;-60
2021/10/20 10:25:04;;;;;;;;;;;;;;;16.44;75.53;99921.59;5035255;28;1334;-60
2021/10/20 10:27:29;;;;;;;;;;;;;;;16.44;76.26;99921.59;5035856;28;870;-60
2021/10/20 10:29:54;;;;;;;;;;;;;;;16.45;75.46;99931.34;5035171;28;842;-60
2021/10/20 10:32:19;;;;;;;;;;;;;;;16.45;75.71;99917.91;5035460;28;989;-59
2021/10/20 10:34:44;;;;;;;;;;;;;;;16.44;75.51;99915.38;5034613;28;1964;-60
2021/10/20 10:37:10;;;;;;;;;;;;;;;16.45;75.36;99911.66;5035239;28;1960;-60
2021/10/20 10:39:35;;;;;;;;;;;;;;;16.44;75.41;99918.91;5035058;28;965;-59
2021/10/20 10:42:00;;;;;;;;;;;;;;;16.45;75.42;99922.44;5035109;28;1009;-59
2021/10/20 10:44:25;;;;;;;;;;;;;;;16.45;75.70;99923.28;5034964;28;811;-60
2021/10/20 10:46:50;;;;;;;;;;;;;;;16.45;75.64;99914.34;5035191;28;882;-60
2021/10/20 10:49:15;;;;;;;;;;;;;;;16.45;75.18;99907.13;5034682;28;1202;-59
2021/10/20 10:51:40;;;;;;;;;;;;;;;16.45;75.72;99917.06;5034915;28;1877;-59
2021/10/20 10:54:05;;;;;;;;;;;;;;;16.46;75.57;99918.75;5034899;28;1914;-60
2021/10/20 10:56:30;;;;;;;;;;;;;;;16.46;75.56;99919.59;5034885;28;993;-59
2021/10/20 10:58:55;;;;;;;;;;;;;;;16.47;75.65;99912.34;5034906;28;965;-59
2021/10/20 11:01:20;;;;;;;;;;;;;;;16.47;75.68;99906.97;5016874;28;855;-59
2021/10/20 11:03:45;;;;;;;;;;;;;;;16.46;75.49;99914.19;5035096;28;973;-60
2021/10/20 11:06:10;;;;;;;;;;;;;;;16.47;74.92;99909.66;5034816;28;1800;-60
2021/10/20 11:08:36;;;;;;;;;;;;;;;16.47;75.61;99902.44;5034673;28;1017;-60
2021/10/20 11:11:01;;;;;;;;;;;;;;;16.48;75.77;99914.03;5034572;28;913;-59
2021/10/20 11:13:26;;;;;;;;;;;;;;;16.47;75.61;99907.81;5034381;28;1748;-59
2021/10/20 11:15:51;;;;;;;;;;;;;;;16.49;76.06;99913.00;5034348;28;1898;-59
2021/10/20 11:18:16;;;;;;;;;;;;;;;16.48;75.77;99900.59;5034838;28;1786;-60
2021/10/20 11:20:46;;;;;;;;;;;;;;;16.47;75.67;99902.44;5034912;28;965;-60
2021/10/20 11:23:11;;;;;;;;;;;;;;;16.48;75.68;99909.47;5038035;28;854;-60
2021/10/20 11:25:36;;;;;;;;;;;;;;;16.48;75.74;99911.34;5038433;28;1821;-59
2021/10/20 11:28:01;;;;;;;;;;;;;;;16.49;75.86;99910.31;5038924;28;1599;-59
2021/10/20 11:30:26;;;;;;;;;;;;;;;16.49;75.89;99907.63;5038544;28;816;-60
2021/10/20 11:32:51;;;;;;;;;;;;;;;16.48;75.61;99905.97;5038645;28;898;-60
2021/10/20 11:35:18;;;;;;;;;;;;;;;16.48;75.57;99905.97;5038468;28;1902;-59
2021/10/20 11:37:43;;;;;;;;;;;;;;;16.49;75.74;99891.50;5038778;28;1498;-60
2021/10/20 11:40:08;;;;;;;;;;;;;;;16.49;75.66;99892.34;5038144;28;1641;-60
2021/10/20 11:42:34;;;;;;;;;;;;;;;16.49;75.72;99883.44;5038395;28;1488;-59
2021/10/20 11:45:01;;;;;;;;;;;;;;;16.50;75.86;99887.81;5038545;28;852;-60
2021/10/20 11:47:27;;;;;;;;;;;;;;;16.50;75.62;99893.19;5038511;28;1829;-59
2021/10/20 11:49:52;;;;;;;;;;;;;;;16.49;76.05;99881.59;5038278;28;1325;-59
2021/10/20 11:52:17;;;;;;;;;;;;;;;16.49;75.60;99873.50;5038297;28;1065;-59
2021/10/20 11:54:42;;;;;;;;;;;;;;;16.49;75.94;99875.34;5038318;28;1902;-59
2021/10/20 11:57:12;;;;;;;;;;;;;;;16.50;75.75;99866.28;5038091;28;930;-60
2021/10/20 11:59:37;;;;;;;;;;;;;;;16.51;75.97;99876.03;5038394;28;881;-60
2021/10/20 12:02:02;;;;;;;;;;;;;;;16.51;75.54;99873.34;5037931;28;858;-60
2021/10/20 12:04:27;;;;;;;;;;;;;;;16.52;75.74;99872.34;5038146;28;1046;-60
2021/10/20 12:06:52;;;;;;;;;;;;;;;16.51;75.80;99881.44;5037727;28;1810;-59
2021/10/20 12:09:17;;;;;;;;;;;;;;;16.51;75.65;99881.44;5037972;28;1758;-59
2021/10/20 12:11:42;;;;;;;;;;;;;;;16.51;75.66;99865.28;5037976;28;949;-60
2021/10/20 12:14:08;;;;;;;;;;;;;;;16.50;75.80;99853.69;5037974;28;1898;-60
2021/10/20 12:16:33;;;;;;;;;;;;;;;16.50;75.86;99867.13;5037801;28;1088;-60
2021/10/20 12:18:58;;;;;;;;;;;;;;;16.51;75.99;99857.22;5037658;28;1969;-59
2021/10/20 12:21:23;;;;;;;;;;;;;;;16.51;75.88;99843.78;5038111;28;1033;-60
2021/10/20 12:23:48;;;;;;;;;;;;;;;16.50;75.75;99853.69;5037599;28;1796;-59
2021/10/20 12:26:13;;;;;;;;;;;;;;;16.51;75.66;99841.94;5037491;28;1310;-60
2021/10/20 12:28:39;;;;;;;;;;;;;;;16.53;75.71;99845.31;5037798;28;1612;-60
2021/10/20 12:31:04;;;;;;;;;;;;;;;16.52;75.80;99858.91;5037391;28;959;-60
2021/10/20 12:33:29;;;;;;;;;;;;;;;16.53;75.93;99842.63;5036801;28;886;-59
2021/10/20 12:35:54;;;;;;;;;;;;;;;16.52;75.52;99827.47;5037082;28;1956;-59
2021/10/20 12:38:21;;;;;;;;;;;;;;;16.53;75.87;99822.94;5036964;28;1771;-59
2021/10/20 12:40:46;;;;;;;;;;;;;;;16.53;75.66;99806.81;5019644;28;1594;-60
2021/10/20 12:43:20;;;;;;;;;;;;;;;16.54;75.96;99811.19;5037046;28;848;-62